createdAt,value
2022-11-23T00:04:47.240Z,0.88
2022-11-23T00:09:53.563Z,0.90
2022-11-23T00:14:59.624Z,0.90
2022-11-23T00:20:09.901Z,0.84
2022-11-23T00:25:16.476Z,0.81
2022-11-23T00:30:23.024Z,0.81
2022-11-23T00:35:31.105Z,0.86
2022-11-23T00:40:40.396Z,0.89
2022-11-23T00:45:46.877Z,0.90
2022-11-23T00:50:54.570Z,0.88
2022-11-23T00:56:01.090Z,0.86
2022-11-23T01:01:10.886Z,0.87
2022-11-23T01:06:21.990Z,0.89
2022-11-23T01:11:31.336Z,0.87
2022-11-23T01:16:40.787Z,0.87
2022-11-23T01:21:51.492Z,0.89
2022-11-23T01:26:57.935Z,0.92
2022-11-23T01:32:06.118Z,0.99
2022-11-23T01:37:13.793Z,1.00
2022-11-23T01:42:20.233Z,1.05
2022-11-23T01:47:27.572Z,1.07
2022-11-23T01:52:35.578Z,1.09
2022-11-23T01:57:45.981Z,1.11
2022-11-23T02:02:58.191Z,1.08
2022-11-23T02:08:07.515Z,1.12
2022-11-23T02:13:15.798Z,1.08
2022-11-23T02:18:25.379Z,1.06
2022-11-23T02:23:43.508Z,1.07
2022-11-23T02:28:59.888Z,1.11
2022-11-23T02:34:08.624Z,1.14
2022-11-23T02:39:20.363Z,1.15
2022-11-23T02:55:30.856Z,1.13
2022-11-23T03:00:42.349Z,1.08
2022-11-23T03:05:49.152Z,1.12
2022-11-23T03:10:55.308Z,1.10
2022-11-23T03:16:04.471Z,1.11
2022-11-23T03:21:11.406Z,1.10
2022-11-23T03:26:18.297Z,1.12
2022-11-23T03:31:35.577Z,1.13
2022-11-23T03:36:42.088Z,1.13
2022-11-23T03:41:48.587Z,1.17
2022-11-23T03:46:57.147Z,1.17
2022-11-23T03:52:04.041Z,1.10
2022-11-23T03:57:10.483Z,1.11
2022-11-23T04:02:18.561Z,1.08
2022-11-23T04:07:34.122Z,1.06
2022-11-23T04:12:43.674Z,1.04
2022-11-23T04:17:51.259Z,1.04
2022-11-23T04:22:58.022Z,1.05
2022-11-23T04:28:06.457Z,1.01
2022-11-23T04:33:14.492Z,1.00
2022-11-23T04:38:20.901Z,0.91
2022-11-23T04:43:27.969Z,0.94
2022-11-23T04:48:35.992Z,0.88
2022-11-23T04:53:43.632Z,0.89
2022-11-23T04:58:50.907Z,0.90
2022-11-23T05:03:59.498Z,0.87
2022-11-23T05:09:07.048Z,0.83
2022-11-23T05:14:32.209Z,0.83
2022-11-23T05:19:39.868Z,0.83
2022-11-23T05:24:46.953Z,0.80
2022-11-23T05:29:57.566Z,0.81
2022-11-23T05:35:05.443Z,0.75
2022-11-23T05:40:14.317Z,0.71
2022-11-23T05:45:21.880Z,0.70
2022-11-23T05:50:33.497Z,0.71
2022-11-23T05:56:05.924Z,0.68
2022-11-23T06:01:17.674Z,0.69
2022-11-23T06:06:25.964Z,0.62
2022-11-23T06:11:33.433Z,0.57
2022-11-23T06:16:45.844Z,0.57
2022-11-23T06:22:15.806Z,0.59
2022-11-23T06:27:38.408Z,0.58
2022-11-23T06:32:53.725Z,0.57
2022-11-23T06:38:04.053Z,0.55
2022-11-23T06:43:10.731Z,0.52
2022-11-23T06:48:21.519Z,0.50
2022-11-23T06:53:30.436Z,0.51
2022-11-23T06:58:41.861Z,0.50
2022-11-23T07:03:52.517Z,0.45
2022-11-23T07:09:06.563Z,0.45
2022-11-23T07:14:38.780Z,0.44
2022-11-23T07:19:45.192Z,0.43
2022-11-23T07:24:53.027Z,0.43
2022-11-23T07:29:59.099Z,0.41
2022-11-23T07:35:05.841Z,0.39
2022-11-23T07:40:17.977Z,0.41
2022-11-23T07:45:24.574Z,0.37
2022-11-23T07:50:34.667Z,0.44
2022-11-23T07:55:42.467Z,0.44
2022-11-23T08:00:48.689Z,0.41
2022-11-23T08:05:54.828Z,0.47
2022-11-23T08:11:02.433Z,0.46
2022-11-23T08:16:09.457Z,0.43
2022-11-23T08:21:15.585Z,0.45
2022-11-23T08:26:23.214Z,0.50
2022-11-23T08:31:29.473Z,0.48
2022-11-23T08:36:35.627Z,0.51
2022-11-23T08:41:43.870Z,0.45
2022-11-23T08:46:51.203Z,0.46
2022-11-23T08:51:57.406Z,0.44
2022-11-23T08:57:05.108Z,0.51
2022-11-23T09:02:14.201Z,0.51
2022-11-23T09:07:20.585Z,0.47
2022-11-23T09:12:28.483Z,0.48
2022-11-23T09:17:34.782Z,0.47
2022-11-23T09:22:41.177Z,0.50
2022-11-23T09:27:49.583Z,0.45
2022-11-23T09:32:58.328Z,0.39
2022-11-23T09:38:04.657Z,0.43
2022-11-23T09:43:42.049Z,0.40
2022-11-23T09:49:17.806Z,0.38
2022-11-23T09:54:34.117Z,0.42
2022-11-23T09:59:47.497Z,0.42
2022-11-23T10:04:55.229Z,0.38
2022-11-23T10:10:10.692Z,0.40
2022-11-23T10:15:27.194Z,0.43
2022-11-23T10:21:00.387Z,0.31
2022-11-23T10:26:10.775Z,0.35
2022-11-23T10:31:21.738Z,0.25
2022-11-23T10:36:28.152Z,0.34
2022-11-23T10:41:34.610Z,0.36
2022-11-23T10:46:43.468Z,0.32
2022-11-23T10:51:58.993Z,0.24
2022-11-23T10:57:30.177Z,0.33
2022-11-23T11:02:44.693Z,0.27
2022-11-23T11:07:51.418Z,0.26
2022-11-23T11:12:57.653Z,0.19
2022-11-23T11:18:05.435Z,0.16
2022-11-23T11:23:21.731Z,0.13
2022-11-23T11:28:35.964Z,0.20
2022-11-23T11:33:48.431Z,0.23
2022-11-23T11:39:18.697Z,0.21
2022-11-23T11:44:28.469Z,0.29
2022-11-23T11:49:43.473Z,0.23
2022-11-23T11:54:55.093Z,0.17
2022-11-23T12:00:09.617Z,0.18
2022-11-23T12:05:25.658Z,0.20
2022-11-23T12:10:40.203Z,0.27
2022-11-23T12:15:50.896Z,0.30
2022-11-23T12:21:07.048Z,0.24
2022-11-23T12:26:27.863Z,0.30
2022-11-23T12:31:44.276Z,0.37
2022-11-23T12:37:14.701Z,0.32
2022-11-23T12:42:28.062Z,0.38
2022-11-23T12:47:47.097Z,0.46
2022-11-23T12:53:07.075Z,0.45
2022-11-23T12:58:23.041Z,0.39
2022-11-23T13:04:09.123Z,0.44
2022-11-23T13:09:33.238Z,0.38
2022-11-23T13:14:50.911Z,0.40
2022-11-23T13:20:17.908Z,0.42
2022-11-23T13:25:29.061Z,0.43
2022-11-23T13:31:13.809Z,0.43
2022-11-23T13:36:11.212Z,0.32
2022-11-23T13:42:02.139Z,0.28
2022-11-23T13:47:20.922Z,0.27
2022-11-23T13:52:37.163Z,0.21
2022-11-23T13:57:47.038Z,0.22
2022-11-23T14:02:53.383Z,0.13
2022-11-23T14:08:03.320Z,0.15
2022-11-23T14:13:20.735Z,0.19
2022-11-23T14:18:57.906Z,0.18
2022-11-23T14:24:38.598Z,0.05
2022-11-23T14:30:09.247Z,0.07
2022-11-23T14:35:30.081Z,0.11
2022-11-23T14:41:04.302Z,0.11
2022-11-23T14:46:19.632Z,0.04
2022-11-23T14:51:28.162Z,0.01
2022-11-23T14:56:38.525Z,0.03
2022-11-23T15:01:52.549Z,0.03
2022-11-23T15:07:03.936Z,0.06
2022-11-23T15:12:28.275Z,0.06
2022-11-23T15:17:36.680Z,0.03
2022-11-23T15:22:46.092Z,-0.12
2022-11-23T15:27:52.734Z,-0.04
2022-11-23T15:33:02.096Z,-0.06
2022-11-23T15:38:17.763Z,-0.09
2022-11-23T15:43:26.970Z,-0.09
2022-11-23T15:48:37.641Z,-0.11
2022-11-23T15:53:51.079Z,-0.10
2022-11-23T15:58:58.286Z,-0.13
2022-11-23T16:04:08.239Z,-0.13
2022-11-23T16:09:54.629Z,-0.10
2022-11-23T16:15:42.096Z,-0.11
2022-11-23T16:20:53.488Z,-0.11
2022-11-23T16:26:04.022Z,-0.16
2022-11-23T16:31:31.971Z,-0.14
2022-11-23T16:36:41.022Z,-0.14
2022-11-23T16:41:47.980Z,-0.14
2022-11-23T16:46:54.501Z,-0.23
2022-11-23T16:52:02.847Z,-0.34
2022-11-23T16:57:16.288Z,-0.30
2022-11-23T17:02:23.586Z,-0.35
2022-11-23T17:07:33.223Z,-0.49
2022-11-23T17:12:41.457Z,-0.45
2022-11-23T17:17:48.595Z,-0.57
2022-11-23T17:23:00.883Z,-0.55
2022-11-23T17:28:17.318Z,-0.55
2022-11-23T17:33:24.776Z,-0.63
2022-11-23T17:38:34.228Z,-0.67
2022-11-23T17:43:41.191Z,-0.61
2022-11-23T17:48:57.377Z,-0.58
2022-11-23T17:54:06.875Z,-0.63
2022-11-23T17:59:15.195Z,-0.83
2022-11-23T18:04:22.480Z,-0.80
2022-11-23T18:09:31.803Z,-0.81
2022-11-23T18:14:39.566Z,-0.76
2022-11-23T18:19:46.987Z,-0.75
2022-11-23T18:24:56.771Z,-0.73
2022-11-23T18:30:10.201Z,-0.71
2022-11-23T18:35:19.033Z,-0.70
2022-11-23T18:40:29.213Z,-0.75
2022-11-23T18:45:37.134Z,-0.73
2022-11-23T18:50:44.884Z,-0.75
2022-11-23T18:55:59.018Z,-0.74
2022-11-23T19:01:13.337Z,-0.78
2022-11-23T19:06:24.083Z,-0.78
2022-11-23T19:11:33.265Z,-0.82
2022-11-23T19:16:41.046Z,-0.76
2022-11-23T19:21:48.205Z,-0.74
2022-11-23T19:26:57.168Z,-0.81
2022-11-23T19:32:04.779Z,-0.88
2022-11-23T19:37:12.524Z,-0.91
2022-11-23T19:42:21.736Z,-0.91
2022-11-23T19:47:32.419Z,-0.88
2022-11-23T19:53:10.726Z,-0.89
2022-11-23T19:58:10.314Z,-0.98
2022-11-23T20:03:17.823Z,-1.07
2022-11-23T20:08:28.219Z,-1.07
2022-11-23T20:13:39.223Z,-1.12
2022-11-23T20:18:47.935Z,-1.17
2022-11-23T20:24:04.365Z,-1.34
2022-11-23T20:29:15.983Z,-1.28
2022-11-23T20:34:26.404Z,-1.33
2022-11-23T20:39:35.002Z,-1.34
2022-11-23T20:44:45.235Z,-1.43
2022-11-23T20:49:52.823Z,-1.46
2022-11-23T20:55:00.284Z,-1.47
2022-11-23T21:00:11.944Z,-1.51
2022-11-23T21:05:19.770Z,-1.61
2022-11-23T21:10:44.058Z,-1.71
2022-11-23T21:15:52.270Z,-1.66
2022-11-23T21:21:03.458Z,-1.72
2022-11-23T21:26:10.718Z,-1.72
2022-11-23T21:31:19.274Z,-1.83
2022-11-23T21:36:26.955Z,-1.80
2022-11-23T21:41:33.884Z,-1.86
2022-11-23T21:46:43.096Z,-1.75
2022-11-23T21:51:50.621Z,-1.91
2022-11-23T21:56:57.357Z,-1.89
2022-11-23T22:02:05.625Z,-1.78
2022-11-23T22:07:12.662Z,-1.70
2022-11-23T22:12:19.074Z,-1.64
2022-11-23T22:17:28.043Z,-1.64
2022-11-23T22:22:33.974Z,-1.76
2022-11-23T22:27:40.486Z,-1.73
2022-11-23T22:32:48.701Z,-1.77
2022-11-23T22:37:55.878Z,-1.72
2022-11-23T22:43:04.115Z,-1.74
2022-11-23T22:48:12.225Z,-1.67
2022-11-23T22:53:18.542Z,-1.70
2022-11-23T22:58:25.011Z,-1.67
2022-11-23T23:09:33.760Z,-1.73
2022-11-23T23:14:40.125Z,-1.74
2022-11-23T23:19:47.962Z,-1.82
2022-11-23T23:24:54.334Z,-1.86
2022-11-23T23:30:01.412Z,-1.95
2022-11-23T23:35:11.760Z,-1.96
2022-11-23T23:40:18.209Z,-1.98
2022-11-23T23:45:24.458Z,-1.87
2022-11-23T23:50:32.401Z,-1.94
2022-11-23T23:55:38.721Z,-1.97
